• Join FlightAware (Why Join?)
  • Login
  • US Flag 
07:35AM EDT


 

Airport Tracker/Info


-or-


 

Live Flight TrackerFlight Track Log ✈ N779NC ✈ 01-Jul-2013 ✈ KCAE - KATL

Flight Track Log - Related Links

Times and Time Zones

All times are in EDT time to prevent confusion due to time zone crossing. See the N779NC flight status page for this flight to view local times or setup timezone preferences in your user account.

Time Position Orientation Groundspeed Altitude Reporting Facility
EDT Latitude Longitude Course Direction KTS MPH feet Rate Location/Type
07:51PM 33.8619 -81.1519 252° West 228 262 4,900  Level Jacksonville Center
07:52PM 33.8140 -81.3046 261° West  Level FlightAware Approximate
07:52PM 33.8486 -81.2422 260° West 251 289 8,200  Level Jacksonville Center
07:53PM 33.8023 -81.3984 261° West  Level FlightAware Approximate
07:54PM 33.7876 -81.4915 259° West  Level FlightAware Approximate
07:54PM 33.8053 -81.4814 258° West 310 357 14,000  Level Atlanta Center
07:55PM 33.7720 -81.5845 259° West  Level FlightAware Approximate
07:55PM 33.7928 -81.5942 262° West 333 383 16,300  Level Atlanta Center
07:56PM 33.7764 -81.7097 260° West 350 403 18,300 2,100 Climbing Atlanta Center
07:57PM 33.7533 -81.8275 257° West 356 410 20,500 1,740 Climbing Atlanta Center
07:58PM 33.7328 -81.9506 259° West 367 422 21,800 720 Climbing Atlanta Center
07:59PM 33.7181 -82.0783 262° West 381 438 22,000 60 Climbing Atlanta Center
08:00PM 33.6969 -82.2011 258° West 388 447 22,000  Level Atlanta Center
08:01PM 33.6442 -82.3069 239° Southwest 377 434 22,000 -900 Level Atlanta Center
08:02PM 33.5939 -82.4303 244° Southwest 372 428 20,300 -960 Descending Atlanta Center
08:03PM 33.5367 -82.5436 239° Southwest 393 452 20,100 -180 Descending Atlanta Center
08:04PM 33.4903 -82.6714 247° West 404 465 20,000 -60 Descending Atlanta Center
08:05PM 33.4475 -82.7839 246° West 399 459 20,000  Level Atlanta Center
08:06PM 33.3881 -82.8944 237° Southwest 391 450 20,000  Level Atlanta Center
08:07PM 33.3350 -83.0069 241° Southwest 397 457 20,000  Level Atlanta Center
08:08PM 33.2858 -83.1269 244° Southwest 397 457 20,000  Level Atlanta Center
08:09PM 33.2406 -83.2442 245° Southwest 387 445 20,000 -900 Level Atlanta Center
08:10PM 33.1994 -83.3386 243° Southwest 379 436 18,200 -2,400 Descending Atlanta Center
08:11PM 33.1500 -83.4408 240° Southwest 366 421 15,300 -2,700 Descending Atlanta Center
08:12PM 33.1589 -83.5600 275° West 345 397 12,800 -1,980 Descending Atlanta Center
08:13PM 33.1667 -83.6333 277° West 335 386 12,100 -480 Descending Atlanta TRACON
08:14PM 33.2000 -83.7333 292° West 303 349 12,100 -420 Level Atlanta TRACON
08:15PM 33.2500 -83.8167 306° West 297 342 11,300 -1,440 Descending Atlanta TRACON
08:16PM 33.3000 -83.9000 306° West 305 351 9,300 -1,560 Descending Atlanta TRACON
08:17PM 33.3500 -83.9667 312° West 269 310 8,200 -1,320 Descending Atlanta TRACON
08:18PM 33.4000 -84.0167 320° Northwest 265 305 6,700 -1,380 Descending Atlanta TRACON
08:19PM 33.4667 -84.0667 328° Northwest 258 297 5,400 -1,140 Descending Atlanta TRACON
08:20PM 33.5333 -84.1000 337° Northwest 236 272 4,400 -720 Descending Atlanta TRACON
08:21PM 33.5833 -84.1333 331° Northwest 234 269 4,000 -180 Descending Atlanta TRACON
08:22PM 33.6000 -84.2000 287° West 185 213 4,100 -300 Climbing Atlanta TRACON
08:23PM 33.6333 -84.2500 309° West 190 219 3,500 -600 Descending Atlanta TRACON